createdAt,value
2022-09-20T00:00:47.378Z,10.21
2022-09-20T00:03:34.977Z,10.21
2022-09-20T00:06:24.050Z,10.21
2022-09-20T00:09:10.722Z,10.20
2022-09-20T00:11:57.441Z,10.20
2022-09-20T00:14:44.085Z,10.18
2022-09-20T00:17:36.388Z,10.17
2022-09-20T00:20:23.504Z,10.17
2022-09-20T00:23:16.181Z,10.17
2022-09-20T00:26:03.606Z,10.16
2022-09-20T00:28:59.111Z,10.16
2022-09-20T00:31:47.481Z,10.14
2022-09-20T00:34:53.093Z,10.12
2022-09-20T00:37:40.895Z,10.11
2022-09-20T00:40:28.797Z,10.09
2022-09-20T00:43:18.589Z,10.08
2022-09-20T00:46:05.455Z,10.08
2022-09-20T00:48:54.228Z,10.08
2022-09-20T00:51:49.633Z,10.06
2022-09-20T00:54:39.289Z,10.05
2022-09-20T00:57:28.613Z,10.03
2022-09-20T01:00:17.956Z,10.03
2022-09-20T01:03:06.126Z,10.02
2022-09-20T01:05:58.130Z,10.01
2022-09-20T01:08:46.219Z,9.99
2022-09-20T01:11:36.182Z,9.99
2022-09-20T01:14:33.017Z,9.97
2022-09-20T01:17:20.145Z,9.97
2022-09-20T01:20:18.075Z,9.95
2022-09-20T01:23:14.036Z,9.94
2022-09-20T01:26:12.147Z,9.92
2022-09-20T01:29:24.745Z,9.89
2022-09-20T01:32:14.810Z,9.91
2022-09-20T01:35:01.542Z,9.88
2022-09-20T01:38:00.592Z,9.87
2022-09-20T01:41:07.183Z,9.86
2022-09-20T01:43:55.522Z,9.85
2022-09-20T01:46:45.774Z,9.85
2022-09-20T01:49:34.224Z,9.84
2022-09-20T01:52:39.483Z,9.82
2022-09-20T01:55:31.640Z,9.81
2022-09-20T01:58:18.408Z,9.81
2022-09-20T02:01:08.850Z,9.80
2022-09-20T02:03:58.608Z,9.80
2022-09-20T02:06:51.377Z,9.80
2022-09-20T02:09:57.003Z,9.79
2022-09-20T02:12:52.274Z,9.79
2022-09-20T02:15:44.557Z,9.78
2022-09-20T02:18:34.213Z,9.77
2022-09-20T02:21:30.102Z,9.76
2022-09-20T02:24:16.753Z,9.76
2022-09-20T02:27:18.873Z,9.75
2022-09-20T02:30:14.616Z,9.73
2022-09-20T02:33:17.120Z,9.72
2022-09-20T02:36:18.404Z,9.72
2022-09-20T02:39:19.685Z,9.71
2022-09-20T02:42:19.406Z,9.69
2022-09-20T02:45:32.615Z,9.69
2022-09-20T02:48:20.961Z,9.69
2022-09-20T02:51:19.553Z,9.69
2022-09-20T02:54:18.857Z,9.69
2022-09-20T02:57:24.225Z,9.69
2022-09-20T03:00:13.536Z,9.68
2022-09-20T03:03:08.643Z,9.68
2022-09-20T03:06:02.794Z,9.67
2022-09-20T03:08:55.197Z,9.67
2022-09-20T03:11:42.068Z,9.65
2022-09-20T03:14:40.904Z,9.65
2022-09-20T03:17:49.468Z,9.63
2022-09-20T03:20:38.991Z,9.63
2022-09-20T03:23:28.194Z,9.63
2022-09-20T03:26:32.963Z,9.64
2022-09-20T03:29:41.756Z,9.65
2022-09-20T03:32:34.676Z,9.65
2022-09-20T03:35:33.490Z,9.65
2022-09-20T03:38:27.689Z,9.66
2022-09-20T03:41:36.272Z,9.66
2022-09-20T03:44:23.046Z,9.67
2022-09-20T03:47:12.921Z,9.65
2022-09-20T03:50:07.951Z,9.65
2022-09-20T03:53:05.871Z,9.65
2022-09-20T03:56:07.891Z,9.65
2022-09-20T03:59:13.563Z,9.64
2022-09-20T04:02:11.794Z,9.65
2022-09-20T04:05:00.333Z,9.66
2022-09-20T04:07:50.117Z,9.65
2022-09-20T04:10:42.435Z,9.64
2022-09-20T04:13:37.573Z,9.65
2022-09-20T04:16:24.558Z,9.64
2022-09-20T04:19:14.227Z,9.64
2022-09-20T04:22:01.498Z,9.64
2022-09-20T04:25:01.233Z,9.63
2022-09-20T04:27:51.974Z,9.64
2022-09-20T04:30:44.080Z,9.64
2022-09-20T04:33:35.811Z,9.63
2022-09-20T04:36:33.905Z,9.64
2022-09-20T04:39:40.427Z,9.64
2022-09-20T04:42:42.854Z,9.63
2022-09-20T04:45:51.531Z,9.63
2022-09-20T04:48:47.568Z,9.63
2022-09-20T04:52:00.204Z,9.63
2022-09-20T04:54:46.870Z,9.63
2022-09-20T04:57:39.837Z,9.63
2022-09-20T05:00:34.188Z,9.63
2022-09-20T05:03:20.837Z,9.62
2022-09-20T05:06:27.275Z,9.62
2022-09-20T05:09:19.390Z,9.61
2022-09-20T05:12:06.070Z,9.60
2022-09-20T05:14:55.856Z,9.60
2022-09-20T05:18:05.715Z,9.59
2022-09-20T05:21:01.638Z,9.59
2022-09-20T05:24:09.486Z,9.59
2022-09-20T05:27:01.825Z,9.59
2022-09-20T05:30:11.276Z,9.59
2022-09-20T05:33:05.695Z,9.60
2022-09-20T05:36:07.293Z,9.60
2022-09-20T05:39:12.751Z,9.60
2022-09-20T05:42:30.035Z,9.60
2022-09-20T05:45:35.816Z,9.59
2022-09-20T05:52:11.461Z,9.61
2022-09-20T05:58:57.460Z,9.62
2022-09-20T06:01:44.335Z,9.62
2022-09-20T06:04:40.838Z,9.61
2022-09-20T06:07:42.663Z,9.62
2022-09-20T06:10:33.964Z,9.64
2022-09-20T06:13:33.007Z,9.64
2022-09-20T06:16:24.445Z,9.63
2022-09-20T06:19:15.174Z,9.64
2022-09-20T06:22:05.741Z,9.63
2022-09-20T06:25:02.109Z,9.65
2022-09-20T06:27:52.078Z,9.65
2022-09-20T06:30:46.438Z,9.65
2022-09-20T06:33:33.110Z,9.67
2022-09-20T06:36:58.658Z,9.65
2022-09-20T06:40:06.898Z,9.62
2022-09-20T06:42:54.943Z,9.62
2022-09-20T06:45:42.772Z,9.64
2022-09-20T06:48:32.511Z,9.68
2022-09-20T06:51:19.641Z,9.73
2022-09-20T06:54:07.016Z,9.78
2022-09-20T06:56:53.822Z,9.84
2022-09-20T06:59:40.533Z,9.93
2022-09-20T07:02:33.214Z,10.01
2022-09-20T07:05:24.565Z,10.08
2022-09-20T07:08:11.976Z,10.10
2022-09-20T07:11:03.231Z,10.12
2022-09-20T07:13:53.966Z,10.13
2022-09-20T07:16:40.698Z,10.12
2022-09-20T07:19:27.361Z,10.15
2022-09-20T07:22:14.449Z,10.16
2022-09-20T07:25:04.359Z,10.16
2022-09-20T07:27:51.158Z,10.19
2022-09-20T07:30:38.744Z,10.22
2022-09-20T07:33:25.511Z,10.26
2022-09-20T07:36:12.414Z,10.31
2022-09-20T07:38:59.087Z,10.38
2022-09-20T07:41:51.139Z,10.46
2022-09-20T07:44:40.882Z,10.51
2022-09-20T07:47:29.590Z,10.57
2022-09-20T07:50:16.329Z,10.60
2022-09-20T07:53:04.763Z,10.63
2022-09-20T07:55:58.450Z,10.64
2022-09-20T07:58:52.159Z,10.63
2022-09-20T08:01:39.611Z,10.62
2022-09-20T08:04:26.445Z,10.62
2022-09-20T08:07:13.220Z,10.61
2022-09-20T08:09:59.962Z,10.64
2022-09-20T08:16:00.381Z,10.78
2022-09-20T08:18:51.313Z,10.85
2022-09-20T08:21:39.698Z,10.91
2022-09-20T08:24:26.723Z,10.96
2022-09-20T08:27:13.380Z,11.00
2022-09-20T08:30:01.122Z,11.04
2022-09-20T08:32:50.298Z,11.10
2022-09-20T08:35:38.399Z,11.16
2022-09-20T08:41:36.293Z,11.38
2022-09-20T08:51:41.382Z,11.46
2022-09-20T08:59:18.685Z,11.47
2022-09-20T09:02:38.515Z,11.46
2022-09-20T09:06:12.452Z,11.48
2022-09-20T09:09:10.276Z,11.52
2022-09-20T09:12:06.508Z,11.58
2022-09-20T09:15:23.424Z,11.67
2022-09-20T09:22:00.564Z,11.87
2022-09-20T09:25:25.389Z,11.91
2022-09-20T09:31:43.289Z,11.97
2022-09-20T09:41:55.895Z,12.01
2022-09-20T09:48:27.620Z,12.08
2022-09-20T09:58:47.495Z,12.21
2022-09-20T10:01:56.433Z,12.21
2022-09-20T10:05:03.399Z,12.20
2022-09-20T10:08:02.243Z,12.22
2022-09-20T10:11:09.891Z,12.23
2022-09-20T10:14:14.427Z,12.26
2022-09-20T10:17:19.800Z,12.26
2022-09-20T10:20:15.274Z,12.31
2022-09-20T10:26:31.546Z,12.46
2022-09-20T10:29:37.063Z,12.57
2022-09-20T10:32:49.825Z,12.67
2022-09-20T10:35:39.337Z,12.75
2022-09-20T10:38:36.186Z,12.83
2022-09-20T10:42:00.673Z,12.87
2022-09-20T10:45:03.697Z,12.87
2022-09-20T10:47:59.515Z,12.86
2022-09-20T10:50:48.663Z,12.87
2022-09-20T10:53:44.007Z,12.89
2022-09-20T10:56:37.353Z,12.90
2022-09-20T10:59:42.200Z,12.92
2022-09-20T11:02:35.246Z,12.93
2022-09-20T11:05:24.671Z,12.94
2022-09-20T11:08:14.368Z,12.95
2022-09-20T11:11:02.794Z,12.94
2022-09-20T11:13:52.485Z,12.93
2022-09-20T11:16:41.786Z,12.96
2022-09-20T11:19:34.494Z,13.01
2022-09-20T11:22:27.386Z,13.04
2022-09-20T11:25:29.847Z,13.03
2022-09-20T11:28:27.122Z,13.02
2022-09-20T11:31:14.062Z,13.01
2022-09-20T11:34:02.828Z,12.96
2022-09-20T11:36:53.534Z,12.94
2022-09-20T11:39:55.601Z,12.92
2022-09-20T11:42:42.294Z,12.92
2022-09-20T11:45:29.292Z,12.96
2022-09-20T11:48:18.383Z,13.05
2022-09-20T11:51:15.123Z,13.16
2022-09-20T11:54:06.495Z,13.22
2022-09-20T11:57:00.594Z,13.30
2022-09-20T11:59:52.962Z,13.33
2022-09-20T12:02:45.807Z,13.33
2022-09-20T12:05:39.614Z,13.32
2022-09-20T12:08:28.078Z,13.31
2022-09-20T12:11:14.720Z,13.33
2022-09-20T12:14:05.734Z,13.37
2022-09-20T12:16:52.780Z,13.43
2022-09-20T12:19:40.035Z,13.48
2022-09-20T12:22:27.319Z,13.57
2022-09-20T12:25:32.789Z,13.60
2022-09-20T12:28:19.563Z,13.59
2022-09-20T12:31:18.323Z,13.55
2022-09-20T12:34:11.765Z,13.52
2022-09-20T12:37:01.075Z,13.48
2022-09-20T12:39:51.910Z,13.46
2022-09-20T12:42:38.636Z,13.44
2022-09-20T12:45:25.372Z,13.44
2022-09-20T12:48:16.017Z,13.45
2022-09-20T12:51:22.462Z,13.49
2022-09-20T12:54:10.041Z,13.53
2022-09-20T12:56:56.887Z,13.51
2022-09-20T12:59:43.565Z,13.52
2022-09-20T13:02:49.157Z,13.55
2022-09-20T13:05:42.828Z,13.55
2022-09-20T13:08:30.011Z,13.57
2022-09-20T13:11:18.474Z,13.59
2022-09-20T13:14:08.153Z,13.61
2022-09-20T13:16:54.757Z,13.65
2022-09-20T13:19:45.113Z,13.69
2022-09-20T13:22:36.933Z,13.71
2022-09-20T13:25:23.974Z,13.72
2022-09-20T13:28:20.989Z,13.73
2022-09-20T13:31:20.234Z,13.74
2022-09-20T13:34:13.648Z,13.76
2022-09-20T13:37:00.644Z,13.80
2022-09-20T13:39:47.778Z,13.84
2022-09-20T13:42:35.659Z,13.87
2022-09-20T13:45:22.553Z,13.89
2022-09-20T13:48:09.362Z,13.90
2022-09-20T13:50:56.365Z,13.88
2022-09-20T13:53:44.754Z,13.87
2022-09-20T13:56:31.412Z,13.88
2022-09-20T13:59:19.548Z,13.89
2022-09-20T14:02:11.947Z,13.90
2022-09-20T14:05:05.253Z,13.91
2022-09-20T14:07:51.945Z,13.90
2022-09-20T14:10:42.981Z,13.88
2022-09-20T14:13:29.660Z,13.85
2022-09-20T14:16:16.504Z,13.84
2022-09-20T14:19:03.910Z,13.82
2022-09-20T14:21:50.574Z,13.80
2022-09-20T14:24:37.396Z,13.77
2022-09-20T14:27:24.054Z,13.76
2022-09-20T14:30:49.314Z,13.75
2022-09-20T14:33:38.674Z,13.75
2022-09-20T14:36:27.540Z,13.75
2022-09-20T14:39:14.878Z,13.75
2022-09-20T14:42:01.519Z,13.73
2022-09-20T14:44:50.079Z,13.71
2022-09-20T14:47:49.625Z,13.73
2022-09-20T14:50:37.592Z,13.72
2022-09-20T14:53:26.732Z,13.69
2022-09-20T14:56:14.822Z,13.69
2022-09-20T14:59:16.857Z,13.66
2022-09-20T15:02:06.868Z,13.64
2022-09-20T15:04:54.622Z,13.62
2022-09-20T15:07:41.678Z,13.59
2022-09-20T15:10:29.542Z,13.55
2022-09-20T15:13:16.607Z,13.52
2022-09-20T15:16:03.272Z,13.48
2022-09-20T15:18:49.919Z,13.44
2022-09-20T15:21:36.561Z,13.42
2022-09-20T15:24:23.284Z,13.39
2022-09-20T15:27:11.253Z,13.36
2022-09-20T15:29:57.924Z,13.34
2022-09-20T15:32:44.730Z,13.33
2022-09-20T15:35:31.385Z,13.31
2022-09-20T15:38:18.543Z,13.30
2022-09-20T15:41:05.937Z,13.29
2022-09-20T15:43:52.574Z,13.27
2022-09-20T15:46:39.211Z,13.25
2022-09-20T15:49:26.633Z,13.22
2022-09-20T15:52:13.464Z,13.20
2022-09-20T15:55:00.619Z,13.18
2022-09-20T15:57:48.793Z,13.16
2022-09-20T16:00:35.688Z,13.14
2022-09-20T16:03:28.049Z,13.11
2022-09-20T16:06:14.702Z,13.08
2022-09-20T16:09:01.407Z,13.06
2022-09-20T16:11:48.270Z,13.02
2022-09-20T16:14:34.916Z,13.00
2022-09-20T16:17:41.692Z,12.97
2022-09-20T16:20:28.363Z,12.94
2022-09-20T16:23:15.007Z,12.91
2022-09-20T16:26:03.115Z,12.89
2022-09-20T16:28:49.794Z,12.85
2022-09-20T16:31:54.909Z,12.84
2022-09-20T16:34:41.597Z,12.81
2022-09-20T16:37:32.809Z,12.79
2022-09-20T16:40:19.564Z,12.75
2022-09-20T16:43:08.676Z,12.72
2022-09-20T16:46:01.481Z,12.69
2022-09-20T16:48:48.421Z,12.66
2022-09-20T16:51:35.791Z,12.63
2022-09-20T16:54:22.871Z,12.60
2022-09-20T16:57:09.535Z,12.59
2022-09-20T16:59:56.206Z,12.57
2022-09-20T17:02:47.625Z,12.55
2022-09-20T17:05:34.537Z,12.54
2022-09-20T17:08:21.229Z,12.53
2022-09-20T17:11:09.392Z,12.54
2022-09-20T17:13:56.328Z,12.55
2022-09-20T17:16:43.450Z,12.53
2022-09-20T17:19:30.106Z,12.50
2022-09-20T17:22:17.382Z,12.49
2022-09-20T17:25:04.145Z,12.50
2022-09-20T17:27:51.456Z,12.46
2022-09-20T17:30:40.232Z,12.44
2022-09-20T17:33:29.641Z,12.41
2022-09-20T17:36:18.787Z,12.40
2022-09-20T17:39:05.571Z,12.37
2022-09-20T17:41:52.307Z,12.35
2022-09-20T17:44:39.044Z,12.33
2022-09-20T17:47:25.685Z,12.29
2022-09-20T17:50:14.743Z,12.28
2022-09-20T17:53:01.381Z,12.26
2022-09-20T17:55:57.239Z,12.22
2022-09-20T17:58:44.523Z,12.21
2022-09-20T18:01:32.594Z,12.17
2022-09-20T18:04:21.180Z,12.15
2022-09-20T18:07:08.085Z,12.13
2022-09-20T18:09:55.654Z,12.10
2022-09-20T18:12:42.338Z,12.07
2022-09-20T18:15:29.016Z,12.06
2022-09-20T18:18:15.688Z,12.03
2022-09-20T18:21:09.261Z,12.01
2022-09-20T18:23:57.154Z,11.99
2022-09-20T18:26:44.484Z,11.96
2022-09-20T18:29:36.426Z,11.93
2022-09-20T18:32:24.281Z,11.90
2022-09-20T18:35:10.969Z,11.89
2022-09-20T18:37:57.617Z,11.85
2022-09-20T18:40:44.684Z,11.82
2022-09-20T18:43:31.491Z,11.80
2022-09-20T18:46:23.528Z,11.76
2022-09-20T18:49:12.698Z,11.75
2022-09-20T18:51:59.377Z,11.72
2022-09-20T18:54:46.031Z,11.69
2022-09-20T18:57:33.497Z,11.66
2022-09-20T19:00:20.352Z,11.65
2022-09-20T19:03:22.777Z,11.62
2022-09-20T19:06:09.467Z,11.59
2022-09-20T19:09:06.652Z,11.57
2022-09-20T19:11:55.842Z,11.54
2022-09-20T19:14:49.120Z,11.52
2022-09-20T19:17:35.719Z,11.49
2022-09-20T19:20:45.748Z,11.47
2022-09-20T19:23:32.320Z,11.45
2022-09-20T19:26:22.905Z,11.44
2022-09-20T19:29:28.413Z,11.40
2022-09-20T19:32:17.268Z,11.36
2022-09-20T19:35:04.149Z,11.33
2022-09-20T19:37:58.224Z,11.32
2022-09-20T19:40:46.710Z,11.30
2022-09-20T19:43:51.778Z,11.27
2022-09-20T19:46:47.592Z,11.24
2022-09-20T19:49:37.393Z,11.22
2022-09-20T19:52:24.191Z,11.20
2022-09-20T19:55:11.935Z,11.17
2022-09-20T19:57:58.988Z,11.13
2022-09-20T20:00:45.881Z,11.12
2022-09-20T20:03:32.707Z,11.08
2022-09-20T20:06:26.815Z,11.04
2022-09-20T20:09:16.531Z,11.03
2022-09-20T20:12:06.808Z,11.01
2022-09-20T20:14:56.719Z,10.96
2022-09-20T20:17:43.339Z,10.95
2022-09-20T20:20:40.110Z,10.92
2022-09-20T20:23:45.514Z,10.91
2022-09-20T20:26:32.197Z,10.87
2022-09-20T20:29:18.845Z,10.83
2022-09-20T20:32:05.510Z,10.82
2022-09-20T20:34:52.168Z,10.80
2022-09-20T20:37:39.829Z,10.78
2022-09-20T20:40:27.150Z,10.74
2022-09-20T20:43:13.853Z,10.71
2022-09-20T20:46:00.549Z,10.69
2022-09-20T20:48:49.862Z,10.66
2022-09-20T20:51:36.570Z,10.62
2022-09-20T20:54:23.360Z,10.60
2022-09-20T20:57:09.996Z,10.58
2022-09-20T20:59:56.851Z,10.56
2022-09-20T21:02:44.936Z,10.52
2022-09-20T21:05:32.214Z,10.49
2022-09-20T21:08:19.323Z,10.47
2022-09-20T21:11:07.150Z,10.43
2022-09-20T21:14:04.163Z,10.41
2022-09-20T21:17:37.014Z,10.38
2022-09-20T21:20:23.673Z,10.35
2022-09-20T21:23:10.369Z,10.31
2022-09-20T21:26:10.243Z,10.28
2022-09-20T21:28:59.957Z,10.27
2022-09-20T21:31:46.798Z,10.24
2022-09-20T21:34:33.656Z,10.21
2022-09-20T21:37:20.427Z,10.18
2022-09-20T21:40:07.459Z,10.14
2022-09-20T21:42:55.316Z,10.10
2022-09-20T21:45:45.147Z,10.07
2022-09-20T21:48:31.825Z,10.06
2022-09-20T21:51:18.930Z,10.02
2022-09-20T21:54:05.756Z,9.99
2022-09-20T21:56:55.666Z,9.94
2022-09-20T21:59:45.377Z,9.92
2022-09-20T22:02:35.273Z,9.90
2022-09-20T22:05:22.193Z,9.87
2022-09-20T22:08:09.678Z,9.83
2022-09-20T22:10:56.981Z,9.81
2022-09-20T22:13:50.347Z,9.79
2022-09-20T22:16:38.034Z,9.75
2022-09-20T22:19:24.758Z,9.73
2022-09-20T22:22:18.857Z,9.71
2022-09-20T22:25:05.904Z,9.68
2022-09-20T22:27:53.743Z,9.64
2022-09-20T22:30:40.432Z,9.61
2022-09-20T22:33:27.149Z,9.58
2022-09-20T22:36:15.599Z,9.56
2022-09-20T22:39:03.081Z,9.53
2022-09-20T22:41:50.556Z,9.51
2022-09-20T22:44:37.228Z,9.48
2022-09-20T22:47:23.911Z,9.45
2022-09-20T22:50:10.584Z,9.42
2022-09-20T22:53:06.211Z,9.40
2022-09-20T22:55:52.963Z,9.37
2022-09-20T22:58:44.060Z,9.34
2022-09-20T23:01:31.829Z,9.32
2022-09-20T23:04:19.296Z,9.30
2022-09-20T23:07:05.976Z,9.27
2022-09-20T23:09:52.735Z,9.24
2022-09-20T23:12:39.836Z,9.22
2022-09-20T23:15:26.657Z,9.20
2022-09-20T23:18:13.331Z,9.16
2022-09-20T23:21:03.191Z,9.12
2022-09-20T23:23:52.548Z,9.12
2022-09-20T23:26:40.010Z,9.08
2022-09-20T23:29:26.992Z,9.05
2022-09-20T23:32:13.655Z,9.03
2022-09-20T23:35:00.373Z,9.01
2022-09-20T23:37:47.039Z,8.98
2022-09-20T23:40:33.729Z,8.96
2022-09-20T23:43:20.458Z,8.92
2022-09-20T23:46:07.310Z,8.90
2022-09-20T23:48:54.077Z,8.87
2022-09-20T23:51:40.738Z,8.85
2022-09-20T23:54:27.627Z,8.82
2022-09-20T23:57:15.253Z,8.79
